sensor_id;sensor_type;location;lat;lon;timestamp;temperature;humidity
29713;DHT22;16623;53.632;10.016;2023-09-07T00:02:08;19.80;99.90
29713;DHT22;16623;53.632;10.016;2023-09-07T00:04:36;19.80;99.90
29713;DHT22;16623;53.632;10.016;2023-09-07T00:07:01;19.80;99.90
29713;DHT22;16623;53.632;10.016;2023-09-07T00:09:27;19.70;99.90
29713;DHT22;16623;53.632;10.016;2023-09-07T00:11:55;19.60;99.90
29713;DHT22;16623;53.632;10.016;2023-09-07T00:14:21;19.50;99.90
29713;DHT22;16623;53.632;10.016;2023-09-07T00:16:47;19.40;99.90
29713;DHT22;16623;53.632;10.016;2023-09-07T00:19:12;19.40;99.90
29713;DHT22;16623;53.632;10.016;2023-09-07T00:21:47;19.40;99.90
29713;DHT22;16623;53.632;10.016;2023-09-07T00:24:13;19.40;99.90
29713;DHT22;16623;53.632;10.016;2023-09-07T00:26:59;19.40;99.90
29713;DHT22;16623;53.632;10.016;2023-09-07T00:29:24;19.40;99.90
29713;DHT22;16623;53.632;10.016;2023-09-07T00:31:50;19.40;99.90
29713;DHT22;16623;53.632;10.016;2023-09-07T00:34:18;19.40;99.90
29713;DHT22;16623;53.632;10.016;2023-09-07T00:37:03;19.40;99.90
29713;DHT22;16623;53.632;10.016;2023-09-07T00:39:29;19.30;99.90
29713;DHT22;16623;53.632;10.016;2023-09-07T00:41:54;19.20;99.90
29713;DHT22;16623;53.632;10.016;2023-09-07T00:44:20;19.30;99.90
29713;DHT22;16623;53.632;10.016;2023-09-07T00:46:46;19.30;99.90
29713;DHT22;16623;53.632;10.016;2023-09-07T00:49:12;21.10;99.90
29713;DHT22;16623;53.632;10.016;2023-09-07T00:51:38;19.40;99.90
29713;DHT22;16623;53.632;10.016;2023-09-07T00:54:03;19.30;99.90
29713;DHT22;16623;53.632;10.016;2023-09-07T00:56:29;19.30;99.90
29713;DHT22;16623;53.632;10.016;2023-09-07T00:58:55;19.30;99.90
29713;DHT22;16623;53.632;10.016;2023-09-07T01:01:22;19.30;99.90
29713;DHT22;16623;53.632;10.016;2023-09-07T01:03:50;19.20;99.90
29713;DHT22;16623;53.632;10.016;2023-09-07T01:06:22;19.20;99.90
29713;DHT22;16623;53.632;10.016;2023-09-07T01:08:59;19.10;99.90
29713;DHT22;16623;53.632;10.016;2023-09-07T01:11:26;19.10;99.90
29713;DHT22;16623;53.632;10.016;2023-09-07T01:13:52;19.00;99.90
29713;DHT22;16623;53.632;10.016;2023-09-07T01:16:19;18.90;99.90
29713;DHT22;16623;53.632;10.016;2023-09-07T01:18:46;18.90;99.90
29713;DHT22;16623;53.632;10.016;2023-09-07T01:21:13;18.80;99.90
29713;DHT22;16623;53.632;10.016;2023-09-07T01:23:43;18.70;99.90
29713;DHT22;16623;53.632;10.016;2023-09-07T01:26:13;18.70;99.90
29713;DHT22;16623;53.632;10.016;2023-09-07T01:28:38;18.70;99.90
29713;DHT22;16623;53.632;10.016;2023-09-07T01:31:04;18.60;99.90
29713;DHT22;16623;53.632;10.016;2023-09-07T01:33:31;18.60;99.90
29713;DHT22;16623;53.632;10.016;2023-09-07T01:35:56;18.50;99.90
29713;DHT22;16623;53.632;10.016;2023-09-07T01:38:22;18.50;99.90
29713;DHT22;16623;53.632;10.016;2023-09-07T01:40:48;18.50;99.90
29713;DHT22;16623;53.632;10.016;2023-09-07T01:43:14;18.50;99.90
29713;DHT22;16623;53.632;10.016;2023-09-07T01:45:39;18.50;99.90
29713;DHT22;16623;53.632;10.016;2023-09-07T01:48:08;18.60;99.90
29713;DHT22;16623;53.632;10.016;2023-09-07T01:50:35;18.60;99.90
29713;DHT22;16623;53.632;10.016;2023-09-07T01:53:01;18.60;99.90
29713;DHT22;16623;53.632;10.016;2023-09-07T01:55:28;18.60;99.90
29713;DHT22;16623;53.632;10.016;2023-09-07T01:57:57;18.60;99.90
29713;DHT22;16623;53.632;10.016;2023-09-07T02:00:24;18.50;99.90
29713;DHT22;16623;53.632;10.016;2023-09-07T02:02:49;18.40;99.90
29713;DHT22;16623;53.632;10.016;2023-09-07T02:05:15;18.40;99.90
29713;DHT22;16623;53.632;10.016;2023-09-07T02:07:42;18.30;99.90
29713;DHT22;16623;53.632;10.016;2023-09-07T02:10:07;18.30;99.90
29713;DHT22;16623;53.632;10.016;2023-09-07T02:12:33;18.20;99.90
29713;DHT22;16623;53.632;10.016;2023-09-07T02:15:04;18.20;99.90
29713;DHT22;16623;53.632;10.016;2023-09-07T02:17:34;18.10;99.90
29713;DHT22;16623;53.632;10.016;2023-09-07T02:19:59;18.10;99.90
29713;DHT22;16623;53.632;10.016;2023-09-07T02:22:28;18.10;99.90
29713;DHT22;16623;53.632;10.016;2023-09-07T02:24:53;18.10;99.90
29713;DHT22;16623;53.632;10.016;2023-09-07T02:27:19;18.00;99.90
29713;DHT22;16623;53.632;10.016;2023-09-07T02:29:44;18.10;99.90
29713;DHT22;16623;53.632;10.016;2023-09-07T02:32:10;18.10;99.90
29713;DHT22;16623;53.632;10.016;2023-09-07T02:34:35;18.00;99.90
29713;DHT22;16623;53.632;10.016;2023-09-07T02:37:02;18.20;99.90
29713;DHT22;16623;53.632;10.016;2023-09-07T02:39:28;18.20;99.90
29713;DHT22;16623;53.632;10.016;2023-09-07T02:41:54;19.60;99.90
29713;DHT22;16623;53.632;10.016;2023-09-07T02:44:26;18.10;99.90
29713;DHT22;16623;53.632;10.016;2023-09-07T02:46:51;18.10;99.90
29713;DHT22;16623;53.632;10.016;2023-09-07T02:49:17;18.10;99.90
29713;DHT22;16623;53.632;10.016;2023-09-07T02:51:43;18.00;99.90
29713;DHT22;16623;53.632;10.016;2023-09-07T02:54:08;18.00;99.90
29713;DHT22;16623;53.632;10.016;2023-09-07T02:56:34;17.90;99.90
29713;DHT22;16623;53.632;10.016;2023-09-07T02:58:59;17.80;99.90
29713;DHT22;16623;53.632;10.016;2023-09-07T03:01:25;18.00;99.90
29713;DHT22;16623;53.632;10.016;2023-09-07T03:03:50;17.80;99.90
29713;DHT22;16623;53.632;10.016;2023-09-07T03:06:23;17.80;99.90
29713;DHT22;16623;53.632;10.016;2023-09-07T03:08:49;17.80;99.90
29713;DHT22;16623;53.632;10.016;2023-09-07T03:11:14;17.70;99.90
29713;DHT22;16623;53.632;10.016;2023-09-07T03:13:40;17.70;99.90
29713;DHT22;16623;53.632;10.016;2023-09-07T03:16:06;17.60;99.90
29713;DHT22;16623;53.632;10.016;2023-09-07T03:18:31;17.60;99.90
29713;DHT22;16623;53.632;10.016;2023-09-07T03:21:00;17.50;99.90
29713;DHT22;16623;53.632;10.016;2023-09-07T03:23:27;18.60;99.90
29713;DHT22;16623;53.632;10.016;2023-09-07T03:25:53;17.30;99.90
29713;DHT22;16623;53.632;10.016;2023-09-07T03:28:21;17.30;99.90
29713;DHT22;16623;53.632;10.016;2023-09-07T03:30:47;17.30;99.90
29713;DHT22;16623;53.632;10.016;2023-09-07T03:33:12;18.90;99.90
29713;DHT22;16623;53.632;10.016;2023-09-07T03:35:38;17.20;99.90
29713;DHT22;16623;53.632;10.016;2023-09-07T03:38:06;17.10;99.90
29713;DHT22;16623;53.632;10.016;2023-09-07T03:40:31;17.10;99.90
29713;DHT22;16623;53.632;10.016;2023-09-07T03:42:57;17.10;99.90
29713;DHT22;16623;53.632;10.016;2023-09-07T03:45:23;17.10;99.90
29713;DHT22;16623;53.632;10.016;2023-09-07T03:47:48;17.00;99.90
29713;DHT22;16623;53.632;10.016;2023-09-07T03:50:14;17.00;99.90
29713;DHT22;16623;53.632;10.016;2023-09-07T03:52:43;17.10;99.90
29713;DHT22;16623;53.632;10.016;2023-09-07T03:55:08;17.10;99.90
29713;DHT22;16623;53.632;10.016;2023-09-07T03:57:34;17.10;99.90
29713;DHT22;16623;53.632;10.016;2023-09-07T04:00:00;17.10;99.90
29713;DHT22;16623;53.632;10.016;2023-09-07T04:02:26;17.10;99.90
29713;DHT22;16623;53.632;10.016;2023-09-07T04:04:53;17.00;99.90
29713;DHT22;16623;53.632;10.016;2023-09-07T04:07:19;17.00;99.90
29713;DHT22;16623;53.632;10.016;2023-09-07T04:09:45;17.00;99.90
29713;DHT22;16623;53.632;10.016;2023-09-07T04:12:11;16.90;99.90
29713;DHT22;16623;53.632;10.016;2023-09-07T04:14:37;16.80;99.90
29713;DHT22;16623;53.632;10.016;2023-09-07T04:17:03;16.90;99.90
29713;DHT22;16623;53.632;10.016;2023-09-07T04:19:29;16.80;99.90
29713;DHT22;16623;53.632;10.016;2023-09-07T04:21:54;16.80;99.90
29713;DHT22;16623;53.632;10.016;2023-09-07T04:24:20;16.70;99.90
29713;DHT22;16623;53.632;10.016;2023-09-07T04:26:47;16.70;99.90
29713;DHT22;16623;53.632;10.016;2023-09-07T04:31:42;16.80;99.90
29713;DHT22;16623;53.632;10.016;2023-09-07T04:34:08;16.80;99.90
29713;DHT22;16623;53.632;10.016;2023-09-07T04:36:34;16.70;99.90
29713;DHT22;16623;53.632;10.016;2023-09-07T04:39:00;16.70;99.90
29713;DHT22;16623;53.632;10.016;2023-09-07T04:41:25;16.80;99.90
29713;DHT22;16623;53.632;10.016;2023-09-07T04:43:54;16.80;99.90
29713;DHT22;16623;53.632;10.016;2023-09-07T04:46:22;16.70;99.90
29713;DHT22;16623;53.632;10.016;2023-09-07T04:48:48;16.70;99.90
29713;DHT22;16623;53.632;10.016;2023-09-07T04:51:14;16.70;99.90
29713;DHT22;16623;53.632;10.016;2023-09-07T04:53:40;16.70;99.90
29713;DHT22;16623;53.632;10.016;2023-09-07T04:56:07;16.70;99.90
29713;DHT22;16623;53.632;10.016;2023-09-07T04:58:33;16.60;99.90
29713;DHT22;16623;53.632;10.016;2023-09-07T05:01:04;16.70;99.90
29713;DHT22;16623;53.632;10.016;2023-09-07T05:03:30;16.70;99.90
29713;DHT22;16623;53.632;10.016;2023-09-07T05:05:56;16.60;99.90
29713;DHT22;16623;53.632;10.016;2023-09-07T05:08:22;16.70;99.90
29713;DHT22;16623;53.632;10.016;2023-09-07T05:10:54;16.70;99.90
29713;DHT22;16623;53.632;10.016;2023-09-07T05:13:20;16.70;99.90
29713;DHT22;16623;53.632;10.016;2023-09-07T05:15:53;16.60;99.90
29713;DHT22;16623;53.632;10.016;2023-09-07T05:18:19;16.70;99.90
29713;DHT22;16623;53.632;10.016;2023-09-07T05:20:45;16.70;99.90
29713;DHT22;16623;53.632;10.016;2023-09-07T05:23:12;16.80;99.90
29713;DHT22;16623;53.632;10.016;2023-09-07T05:25:54;16.80;99.90
29713;DHT22;16623;53.632;10.016;2023-09-07T05:28:21;16.70;99.90
29713;DHT22;16623;53.632;10.016;2023-09-07T05:30:47;17.10;99.90
29713;DHT22;16623;53.632;10.016;2023-09-07T05:33:15;18.90;99.90
29713;DHT22;16623;53.632;10.016;2023-09-07T05:35:41;16.90;99.90
29713;DHT22;16623;53.632;10.016;2023-09-07T05:38:16;16.90;99.90
29713;DHT22;16623;53.632;10.016;2023-09-07T05:41:02;17.00;99.90
29713;DHT22;16623;53.632;10.016;2023-09-07T05:43:29;16.90;99.90
29713;DHT22;16623;53.632;10.016;2023-09-07T05:45:55;17.00;99.90
29713;DHT22;16623;53.632;10.016;2023-09-07T05:48:26;17.00;99.90
29713;DHT22;16623;53.632;10.016;2023-09-07T05:50:51;17.10;99.90
29713;DHT22;16623;53.632;10.016;2023-09-07T05:53:19;17.20;99.90
29713;DHT22;16623;53.632;10.016;2023-09-07T05:55:46;17.20;99.90
29713;DHT22;16623;53.632;10.016;2023-09-07T05:58:12;17.20;99.90
29713;DHT22;16623;53.632;10.016;2023-09-07T06:00:38;17.30;99.90
29713;DHT22;16623;53.632;10.016;2023-09-07T06:03:05;17.40;99.90
29713;DHT22;16623;53.632;10.016;2023-09-07T06:05:30;17.40;99.90
29713;DHT22;16623;53.632;10.016;2023-09-07T06:07:56;17.50;99.90
29713;DHT22;16623;53.632;10.016;2023-09-07T06:10:22;17.60;99.90
29713;DHT22;16623;53.632;10.016;2023-09-07T06:12:48;17.50;99.90
29713;DHT22;16623;53.632;10.016;2023-09-07T06:15:13;17.60;99.90
29713;DHT22;16623;53.632;10.016;2023-09-07T06:17:39;17.70;99.90
29713;DHT22;16623;53.632;10.016;2023-09-07T06:20:05;17.70;99.90
29713;DHT22;16623;53.632;10.016;2023-09-07T06:22:31;17.80;99.90
29713;DHT22;16623;53.632;10.016;2023-09-07T06:24:57;17.90;99.90
29713;DHT22;16623;53.632;10.016;2023-09-07T06:27:22;18.00;99.90
29713;DHT22;16623;53.632;10.016;2023-09-07T06:29:49;18.00;99.90
29713;DHT22;16623;53.632;10.016;2023-09-07T06:32:14;18.10;99.90
29713;DHT22;16623;53.632;10.016;2023-09-07T06:34:40;18.20;99.90
29713;DHT22;16623;53.632;10.016;2023-09-07T06:37:06;18.30;99.90
29713;DHT22;16623;53.632;10.016;2023-09-07T06:39:32;18.50;99.90
29713;DHT22;16623;53.632;10.016;2023-09-07T06:41:57;18.50;99.90
29713;DHT22;16623;53.632;10.016;2023-09-07T06:44:22;18.70;99.90
29713;DHT22;16623;53.632;10.016;2023-09-07T06:46:48;18.90;99.90
29713;DHT22;16623;53.632;10.016;2023-09-07T06:49:14;18.80;99.90
29713;DHT22;16623;53.632;10.016;2023-09-07T06:51:40;19.00;99.90
29713;DHT22;16623;53.632;10.016;2023-09-07T06:54:06;19.00;99.90
29713;DHT22;16623;53.632;10.016;2023-09-07T06:56:31;19.30;99.90
29713;DHT22;16623;53.632;10.016;2023-09-07T06:58:58;20.40;99.90
29713;DHT22;16623;53.632;10.016;2023-09-07T07:01:24;19.40;99.90
29713;DHT22;16623;53.632;10.016;2023-09-07T07:03:49;19.40;99.90
29713;DHT22;16623;53.632;10.016;2023-09-07T07:06:15;19.50;99.90
29713;DHT22;16623;53.632;10.016;2023-09-07T07:11:07;19.60;99.90
29713;DHT22;16623;53.632;10.016;2023-09-07T07:13:33;19.70;99.90
29713;DHT22;16623;53.632;10.016;2023-09-07T07:15:58;19.80;99.90
29713;DHT22;16623;53.632;10.016;2023-09-07T07:18:24;19.90;99.90
29713;DHT22;16623;53.632;10.016;2023-09-07T07:20:50;19.90;99.90
29713;DHT22;16623;53.632;10.016;2023-09-07T07:23:18;20.00;99.90
29713;DHT22;16623;53.632;10.016;2023-09-07T07:25:44;20.10;99.90
29713;DHT22;16623;53.632;10.016;2023-09-07T07:28:10;20.20;99.90
29713;DHT22;16623;53.632;10.016;2023-09-07T07:30:37;20.20;99.90
29713;DHT22;16623;53.632;10.016;2023-09-07T07:33:04;20.40;99.90
29713;DHT22;16623;53.632;10.016;2023-09-07T07:35:33;20.50;99.90
29713;DHT22;16623;53.632;10.016;2023-09-07T07:38:00;20.60;99.90
29713;DHT22;16623;53.632;10.016;2023-09-07T07:40:26;20.70;99.90
29713;DHT22;16623;53.632;10.016;2023-09-07T07:42:53;20.80;99.90
29713;DHT22;16623;53.632;10.016;2023-09-07T07:45:19;20.90;99.90
29713;DHT22;16623;53.632;10.016;2023-09-07T07:47:48;21.00;99.90
29713;DHT22;16623;53.632;10.016;2023-09-07T07:50:14;21.10;99.90
29713;DHT22;16623;53.632;10.016;2023-09-07T07:52:39;22.90;99.90
29713;DHT22;16623;53.632;10.016;2023-09-07T07:55:06;21.30;99.90
29713;DHT22;16623;53.632;10.016;2023-09-07T07:57:32;21.40;99.90
29713;DHT22;16623;53.632;10.016;2023-09-07T07:59:58;21.50;99.90
29713;DHT22;16623;53.632;10.016;2023-09-07T08:02:23;21.60;99.90
29713;DHT22;16623;53.632;10.016;2023-09-07T08:04:49;21.60;99.90
29713;DHT22;16623;53.632;10.016;2023-09-07T08:07:17;21.70;99.90
29713;DHT22;16623;53.632;10.016;2023-09-07T08:09:43;21.80;99.90
29713;DHT22;16623;53.632;10.016;2023-09-07T08:12:08;21.90;99.90
29713;DHT22;16623;53.632;10.016;2023-09-07T08:14:35;22.00;99.90
29713;DHT22;16623;53.632;10.016;2023-09-07T08:17:00;22.10;99.90
29713;DHT22;16623;53.632;10.016;2023-09-07T08:19:27;22.10;99.90
29713;DHT22;16623;53.632;10.016;2023-09-07T08:21:53;22.20;99.90
29713;DHT22;16623;53.632;10.016;2023-09-07T08:24:19;22.40;99.90
29713;DHT22;16623;53.632;10.016;2023-09-07T08:26:44;22.40;99.90
29713;DHT22;16623;53.632;10.016;2023-09-07T08:29:10;22.40;99.90
29713;DHT22;16623;53.632;10.016;2023-09-07T08:31:36;22.50;99.90
29713;DHT22;16623;53.632;10.016;2023-09-07T08:34:05;22.70;99.90
29713;DHT22;16623;53.632;10.016;2023-09-07T08:36:31;23.00;99.90
29713;DHT22;16623;53.632;10.016;2023-09-07T08:39:01;22.90;99.90
29713;DHT22;16623;53.632;10.016;2023-09-07T08:41:32;23.00;99.90
29713;DHT22;16623;53.632;10.016;2023-09-07T08:43:59;23.00;99.90
29713;DHT22;16623;53.632;10.016;2023-09-07T08:46:26;23.10;99.90
29713;DHT22;16623;53.632;10.016;2023-09-07T08:48:52;23.20;99.90
29713;DHT22;16623;53.632;10.016;2023-09-07T08:51:20;23.20;99.90
29713;DHT22;16623;53.632;10.016;2023-09-07T08:53:48;23.30;99.90
29713;DHT22;16623;53.632;10.016;2023-09-07T08:56:17;23.40;99.90
29713;DHT22;16623;53.632;10.016;2023-09-07T08:58:44;23.50;99.90
29713;DHT22;16623;53.632;10.016;2023-09-07T09:01:15;23.60;99.90
29713;DHT22;16623;53.632;10.016;2023-09-07T09:03:42;23.80;99.90
29713;DHT22;16623;53.632;10.016;2023-09-07T09:06:08;23.80;99.90
29713;DHT22;16623;53.632;10.016;2023-09-07T09:08:44;23.80;99.90
29713;DHT22;16623;53.632;10.016;2023-09-07T09:11:11;23.90;99.90
29713;DHT22;16623;53.632;10.016;2023-09-07T09:13:37;24.00;99.90
29713;DHT22;16623;53.632;10.016;2023-09-07T09:16:02;24.10;99.90
29713;DHT22;16623;53.632;10.016;2023-09-07T09:18:28;24.20;99.90
29713;DHT22;16623;53.632;10.016;2023-09-07T09:20:55;24.30;99.90
29713;DHT22;16623;53.632;10.016;2023-09-07T09:23:21;24.30;99.90
29713;DHT22;16623;53.632;10.016;2023-09-07T09:25:49;24.40;99.90
29713;DHT22;16623;53.632;10.016;2023-09-07T09:28:15;24.40;99.90
29713;DHT22;16623;53.632;10.016;2023-09-07T09:30:41;24.50;99.90
29713;DHT22;16623;53.632;10.016;2023-09-07T09:33:10;24.60;99.90
29713;DHT22;16623;53.632;10.016;2023-09-07T09:35:37;24.70;99.90
29713;DHT22;16623;53.632;10.016;2023-09-07T09:38:03;24.70;99.90
29713;DHT22;16623;53.632;10.016;2023-09-07T09:40:33;24.80;99.90
29713;DHT22;16623;53.632;10.016;2023-09-07T09:43:01;24.80;99.90
29713;DHT22;16623;53.632;10.016;2023-09-07T09:45:28;24.90;99.90
29713;DHT22;16623;53.632;10.016;2023-09-07T09:47:54;24.90;99.90
29713;DHT22;16623;53.632;10.016;2023-09-07T09:50:22;25.00;99.90
29713;DHT22;16623;53.632;10.016;2023-09-07T09:52:48;25.10;99.90
29713;DHT22;16623;53.632;10.016;2023-09-07T09:55:15;25.10;99.90
29713;DHT22;16623;53.632;10.016;2023-09-07T09:57:41;25.30;99.90
29713;DHT22;16623;53.632;10.016;2023-09-07T10:00:07;25.30;99.90
29713;DHT22;16623;53.632;10.016;2023-09-07T10:03:10;25.40;99.90
29713;DHT22;16623;53.632;10.016;2023-09-07T10:05:38;25.50;99.90
29713;DHT22;16623;53.632;10.016;2023-09-07T10:08:11;25.60;99.90
29713;DHT22;16623;53.632;10.016;2023-09-07T10:10:37;25.70;99.90
29713;DHT22;16623;53.632;10.016;2023-09-07T10:13:03;25.80;99.90
29713;DHT22;16623;53.632;10.016;2023-09-07T10:15:29;25.90;99.90
29713;DHT22;16623;53.632;10.016;2023-09-07T10:18:13;25.90;99.90
29713;DHT22;16623;53.632;10.016;2023-09-07T10:20:57;26.00;99.90
29713;DHT22;16623;53.632;10.016;2023-09-07T10:23:35;26.20;99.90
29713;DHT22;16623;53.632;10.016;2023-09-07T10:26:03;26.30;99.90
29713;DHT22;16623;53.632;10.016;2023-09-07T10:28:29;26.70;99.90
29713;DHT22;16623;53.632;10.016;2023-09-07T10:33:25;27.60;99.90
29713;DHT22;16623;53.632;10.016;2023-09-07T10:35:51;27.80;99.90
29713;DHT22;16623;53.632;10.016;2023-09-07T10:38:17;27.70;99.90
29713;DHT22;16623;53.632;10.016;2023-09-07T10:40:46;28.00;99.50
29713;DHT22;16623;53.632;10.016;2023-09-07T10:43:12;28.20;99.20
29713;DHT22;16623;53.632;10.016;2023-09-07T10:45:38;28.40;98.00
29713;DHT22;16623;53.632;10.016;2023-09-07T10:48:04;28.20;96.60
29713;DHT22;16623;53.632;10.016;2023-09-07T10:50:30;28.10;97.20
29713;DHT22;16623;53.632;10.016;2023-09-07T10:55:21;27.60;97.50
29713;DHT22;16623;53.632;10.016;2023-09-07T10:57:47;27.40;97.80
29713;DHT22;16623;53.632;10.016;2023-09-07T11:00:14;27.20;97.40
29713;DHT22;16623;53.632;10.016;2023-09-07T11:02:41;27.00;97.20
29713;DHT22;16623;53.632;10.016;2023-09-07T11:05:07;27.00;96.80
29713;DHT22;16623;53.632;10.016;2023-09-07T11:07:33;26.90;96.90
29713;DHT22;16623;53.632;10.016;2023-09-07T11:09:59;26.90;97.00
29713;DHT22;16623;53.632;10.016;2023-09-07T11:12:25;27.00;96.70
29713;DHT22;16623;53.632;10.016;2023-09-07T11:14:51;27.00;96.70
29713;DHT22;16623;53.632;10.016;2023-09-07T11:17:26;26.90;96.60
29713;DHT22;16623;53.632;10.016;2023-09-07T11:19:52;27.00;97.20
29713;DHT22;16623;53.632;10.016;2023-09-07T11:22:18;27.10;96.80
29713;DHT22;16623;53.632;10.016;2023-09-07T11:24:45;27.10;96.80
29713;DHT22;16623;53.632;10.016;2023-09-07T11:27:11;27.10;97.20
29713;DHT22;16623;53.632;10.016;2023-09-07T11:29:36;27.10;96.60
29713;DHT22;16623;53.632;10.016;2023-09-07T11:32:10;30.30;96.60
29713;DHT22;16623;53.632;10.016;2023-09-07T11:34:47;27.10;94.60
29713;DHT22;16623;53.632;10.016;2023-09-07T11:37:14;27.10;94.40
29713;DHT22;16623;53.632;10.016;2023-09-07T11:39:39;27.30;94.90
29713;DHT22;16623;53.632;10.016;2023-09-07T11:42:05;27.30;94.90
29713;DHT22;16623;53.632;10.016;2023-09-07T11:44:30;27.20;94.50
29713;DHT22;16623;53.632;10.016;2023-09-07T11:46:56;27.30;94.30
29713;DHT22;16623;53.632;10.016;2023-09-07T11:49:21;27.30;94.00
29713;DHT22;16623;53.632;10.016;2023-09-07T11:51:47;27.30;93.40
29713;DHT22;16623;53.632;10.016;2023-09-07T11:54:13;27.30;93.70
29713;DHT22;16623;53.632;10.016;2023-09-07T11:56:38;27.30;93.20
29713;DHT22;16623;53.632;10.016;2023-09-07T11:59:08;27.40;93.70
29713;DHT22;16623;53.632;10.016;2023-09-07T12:01:34;27.50;93.00
29713;DHT22;16623;53.632;10.016;2023-09-07T12:04:00;27.50;93.40
29713;DHT22;16623;53.632;10.016;2023-09-07T12:06:26;27.70;92.70
29713;DHT22;16623;53.632;10.016;2023-09-07T12:09:06;27.80;92.70
29713;DHT22;16623;53.632;10.016;2023-09-07T12:11:35;27.90;92.80
29713;DHT22;16623;53.632;10.016;2023-09-07T12:14:01;27.80;91.90
29713;DHT22;16623;53.632;10.016;2023-09-07T12:16:28;27.80;92.30
29713;DHT22;16623;53.632;10.016;2023-09-07T12:18:54;27.80;92.20
29713;DHT22;16623;53.632;10.016;2023-09-07T12:21:20;27.70;91.50
29713;DHT22;16623;53.632;10.016;2023-09-07T12:23:46;27.70;91.20
29713;DHT22;16623;53.632;10.016;2023-09-07T12:26:14;27.80;90.80
29713;DHT22;16623;53.632;10.016;2023-09-07T12:28:42;27.90;91.60
29713;DHT22;16623;53.632;10.016;2023-09-07T12:31:07;28.00;92.20
29713;DHT22;16623;53.632;10.016;2023-09-07T12:33:33;28.10;92.20
29713;DHT22;16623;53.632;10.016;2023-09-07T12:35:59;28.20;91.90
29713;DHT22;16623;53.632;10.016;2023-09-07T12:38:25;28.30;91.90
29713;DHT22;16623;53.632;10.016;2023-09-07T12:40:54;28.30;91.80
29713;DHT22;16623;53.632;10.016;2023-09-07T12:43:19;30.70;91.70
29713;DHT22;16623;53.632;10.016;2023-09-07T12:45:48;28.50;90.60
29713;DHT22;16623;53.632;10.016;2023-09-07T12:48:13;28.50;91.00
29713;DHT22;16623;53.632;10.016;2023-09-07T12:50:39;28.20;90.30
29713;DHT22;16623;53.632;10.016;2023-09-07T12:53:05;28.30;90.70
29713;DHT22;16623;53.632;10.016;2023-09-07T12:55:31;28.10;90.70
29713;DHT22;16623;53.632;10.016;2023-09-07T12:57:58;28.10;91.10
29713;DHT22;16623;53.632;10.016;2023-09-07T13:00:24;28.00;91.00
29713;DHT22;16623;53.632;10.016;2023-09-07T13:02:49;28.10;90.60
29713;DHT22;16623;53.632;10.016;2023-09-07T13:05:15;28.10;90.70
29713;DHT22;16623;53.632;10.016;2023-09-07T13:07:41;28.10;90.40
29713;DHT22;16623;53.632;10.016;2023-09-07T13:10:09;28.10;90.90
29713;DHT22;16623;53.632;10.016;2023-09-07T13:12:36;28.20;91.00
29713;DHT22;16623;53.632;10.016;2023-09-07T13:15:01;28.30;90.40
29713;DHT22;16623;53.632;10.016;2023-09-07T13:17:28;28.20;90.40
29713;DHT22;16623;53.632;10.016;2023-09-07T13:19:53;28.30;90.10
29713;DHT22;16623;53.632;10.016;2023-09-07T13:22:19;28.20;89.90
29713;DHT22;16623;53.632;10.016;2023-09-07T13:24:44;28.30;90.00
29713;DHT22;16623;53.632;10.016;2023-09-07T13:27:10;28.30;87.00
29713;DHT22;16623;53.632;10.016;2023-09-07T13:29:36;28.40;86.40
29713;DHT22;16623;53.632;10.016;2023-09-07T13:32:01;28.40;86.30
29713;DHT22;16623;53.632;10.016;2023-09-07T13:34:27;28.60;84.30
29713;DHT22;16623;53.632;10.016;2023-09-07T13:36:53;28.60;85.30
29713;DHT22;16623;53.632;10.016;2023-09-07T13:39:19;28.60;84.10
29713;DHT22;16623;53.632;10.016;2023-09-07T13:41:45;28.60;84.70
29713;DHT22;16623;53.632;10.016;2023-09-07T13:44:11;28.70;84.80
29713;DHT22;16623;53.632;10.016;2023-09-07T13:46:37;28.70;84.10
29713;DHT22;16623;53.632;10.016;2023-09-07T13:49:02;28.70;83.00
29713;DHT22;16623;53.632;10.016;2023-09-07T13:51:28;28.60;82.60
29713;DHT22;16623;53.632;10.016;2023-09-07T13:53:57;28.60;83.90
29713;DHT22;16623;53.632;10.016;2023-09-07T13:56:22;28.60;83.20
29713;DHT22;16623;53.632;10.016;2023-09-07T13:58:48;28.50;82.20
29713;DHT22;16623;53.632;10.016;2023-09-07T14:01:13;28.50;83.30
29713;DHT22;16623;53.632;10.016;2023-09-07T14:03:39;28.50;83.70
29713;DHT22;16623;53.632;10.016;2023-09-07T14:06:04;28.50;83.50
29713;DHT22;16623;53.632;10.016;2023-09-07T14:08:30;28.40;83.20
29713;DHT22;16623;53.632;10.016;2023-09-07T14:10:58;28.40;82.50
29713;DHT22;16623;53.632;10.016;2023-09-07T14:13:23;28.30;81.90
29713;DHT22;16623;53.632;10.016;2023-09-07T14:15:49;28.20;81.80
29713;DHT22;16623;53.632;10.016;2023-09-07T14:18:16;28.20;83.40
29713;DHT22;16623;53.632;10.016;2023-09-07T14:20:41;28.30;83.30
29713;DHT22;16623;53.632;10.016;2023-09-07T14:23:07;28.20;81.70
29713;DHT22;16623;53.632;10.016;2023-09-07T14:25:32;28.30;83.60
29713;DHT22;16623;53.632;10.016;2023-09-07T14:27:58;28.30;81.60
29713;DHT22;16623;53.632;10.016;2023-09-07T14:30:24;28.30;81.90
29713;DHT22;16623;53.632;10.016;2023-09-07T14:32:50;28.40;82.30
29713;DHT22;16623;53.632;10.016;2023-09-07T14:35:15;28.40;82.60
29713;DHT22;16623;53.632;10.016;2023-09-07T14:37:41;28.40;81.40
29713;DHT22;16623;53.632;10.016;2023-09-07T14:40:07;28.40;80.00
29713;DHT22;16623;53.632;10.016;2023-09-07T14:42:34;28.30;79.20
29713;DHT22;16623;53.632;10.016;2023-09-07T14:44:59;28.20;80.50
29713;DHT22;16623;53.632;10.016;2023-09-07T14:47:28;28.30;80.80
29713;DHT22;16623;53.632;10.016;2023-09-07T14:49:54;28.30;81.20
29713;DHT22;16623;53.632;10.016;2023-09-07T14:52:20;28.30;80.30
29713;DHT22;16623;53.632;10.016;2023-09-07T14:54:48;28.20;80.00
29713;DHT22;16623;53.632;10.016;2023-09-07T14:57:13;28.30;80.40
29713;DHT22;16623;53.632;10.016;2023-09-07T14:59:39;28.30;78.80
29713;DHT22;16623;53.632;10.016;2023-09-07T15:02:05;28.20;78.40
29713;DHT22;16623;53.632;10.016;2023-09-07T15:04:32;28.20;79.60
29713;DHT22;16623;53.632;10.016;2023-09-07T15:06:57;28.20;79.10
29713;DHT22;16623;53.632;10.016;2023-09-07T15:09:23;28.10;78.80
29713;DHT22;16623;53.632;10.016;2023-09-07T15:11:48;28.10;79.70
29713;DHT22;16623;53.632;10.016;2023-09-07T15:14:14;28.10;79.30
29713;DHT22;16623;53.632;10.016;2023-09-07T15:16:39;28.00;78.90
29713;DHT22;16623;53.632;10.016;2023-09-07T15:19:05;28.00;77.50
29713;DHT22;16623;53.632;10.016;2023-09-07T15:21:30;28.00;78.80
29713;DHT22;16623;53.632;10.016;2023-09-07T15:23:56;28.00;78.40